createdAt,value
2018-12-11T00:00:38.909Z,68.96
2018-12-11T00:01:41.437Z,69.02
2018-12-11T00:02:43.899Z,68.88
2018-12-11T00:03:46.371Z,69.21
2018-12-11T00:04:48.818Z,68.73
2018-12-11T00:05:51.241Z,68.82
2018-12-11T00:06:53.672Z,68.32
2018-12-11T00:07:56.123Z,68.87
2018-12-11T00:08:58.574Z,68.60
2018-12-11T00:10:01.708Z,68.47
2018-12-11T00:11:04.251Z,68.76
2018-12-11T00:12:06.695Z,69.07
2018-12-11T00:13:09.174Z,68.88
2018-12-11T00:14:11.620Z,68.80
2018-12-11T00:15:14.063Z,68.89
2018-12-11T00:16:16.499Z,68.92
2018-12-11T00:17:18.929Z,69.33
2018-12-11T00:18:21.399Z,69.15
2018-12-11T00:19:23.866Z,68.91
2018-12-11T00:20:27.526Z,69.13
2018-12-11T00:21:30.133Z,69.09
2018-12-11T00:22:32.578Z,68.91
2018-12-11T00:23:35.044Z,68.70
2018-12-11T00:24:37.518Z,69.01
2018-12-11T00:25:39.947Z,68.39
2018-12-11T00:26:42.431Z,68.71
2018-12-11T00:27:44.885Z,68.97
2018-12-11T00:28:47.361Z,68.97
2018-12-11T00:29:49.861Z,68.79
2018-12-11T00:30:52.409Z,68.82
2018-12-11T00:31:54.873Z,68.94
2018-12-11T00:32:57.312Z,68.81
2018-12-11T00:33:59.779Z,69.24
2018-12-11T00:35:02.242Z,68.95
2018-12-11T00:36:04.681Z,69.29
2018-12-11T00:37:07.118Z,69.26
2018-12-11T00:38:09.567Z,68.97
2018-12-11T00:39:12.027Z,69.48
2018-12-11T00:40:14.461Z,69.40
2018-12-11T00:41:16.914Z,68.84
2018-12-11T00:42:19.396Z,68.81
2018-12-11T00:43:21.831Z,69.40
2018-12-11T00:44:24.297Z,69.44
2018-12-11T00:45:26.797Z,69.37
2018-12-11T00:46:29.243Z,69.26
2018-12-11T00:47:31.831Z,69.09
2018-12-11T00:48:34.273Z,69.63
2018-12-11T00:49:36.724Z,69.51
2018-12-11T00:50:39.184Z,69.25
2018-12-11T00:51:41.640Z,69.06
2018-12-11T00:52:44.075Z,69.00
2018-12-11T00:53:46.522Z,69.38
2018-12-11T00:54:48.983Z,69.64
2018-12-11T00:55:51.427Z,68.94
2018-12-11T00:56:53.943Z,69.00
2018-12-11T00:57:56.367Z,69.50
2018-12-11T00:58:58.796Z,69.38
2018-12-11T01:00:01.244Z,69.34
2018-12-11T01:01:03.802Z,69.16
2018-12-11T01:02:06.321Z,68.79
2018-12-11T01:03:08.791Z,68.98
2018-12-11T01:04:11.224Z,68.67
2018-12-11T01:05:13.667Z,68.98
2018-12-11T01:06:16.117Z,68.61
2018-12-11T01:07:18.565Z,69.01
2018-12-11T01:08:21.024Z,68.92
2018-12-11T01:09:23.477Z,69.29
2018-12-11T01:10:25.940Z,68.92
2018-12-11T01:11:28.420Z,68.86
2018-12-11T01:12:30.944Z,68.73
2018-12-11T01:13:33.378Z,69.23
2018-12-11T01:14:35.809Z,69.59
2018-12-11T01:15:38.264Z,69.03
2018-12-11T01:16:40.707Z,69.35
2018-12-11T01:17:43.155Z,68.97
2018-12-11T01:18:45.596Z,69.42
2018-12-11T01:19:48.027Z,69.39
2018-12-11T01:20:50.482Z,68.81
2018-12-11T01:21:52.949Z,69.09
2018-12-11T01:22:55.390Z,69.35
2018-12-11T01:23:57.834Z,69.73
2018-12-11T01:25:00.348Z,69.35
2018-12-11T01:26:02.815Z,69.87
2018-12-11T01:27:05.276Z,69.51
2018-12-11T01:28:07.711Z,69.24
2018-12-11T01:29:10.147Z,68.75
2018-12-11T01:30:12.810Z,69.09
2018-12-11T01:31:15.263Z,69.55
2018-12-11T01:32:17.738Z,69.62
2018-12-11T01:33:20.179Z,69.51
2018-12-11T01:34:22.616Z,68.99
2018-12-11T01:35:25.065Z,69.60
2018-12-11T01:36:27.505Z,69.49
2018-12-11T01:37:29.956Z,69.74
2018-12-11T01:38:32.385Z,69.87
2018-12-11T01:39:34.823Z,69.56
2018-12-11T01:40:37.282Z,69.43
2018-12-11T01:41:39.753Z,69.22
2018-12-11T01:42:42.192Z,69.33
2018-12-11T01:43:44.711Z,68.91
2018-12-11T01:44:47.139Z,68.99
2018-12-11T01:45:49.570Z,68.96
2018-12-11T01:46:52.018Z,69.60
2018-12-11T01:47:54.463Z,69.32
2018-12-11T01:48:56.904Z,69.69
2018-12-11T01:49:59.339Z,69.65
2018-12-11T01:51:01.769Z,69.09
2018-12-11T01:52:04.222Z,69.78
2018-12-11T01:53:06.659Z,69.54
2018-12-11T01:54:09.095Z,68.99
2018-12-11T01:55:11.538Z,69.97
2018-12-11T01:56:14.154Z,69.65
2018-12-11T01:57:16.622Z,70.23
2018-12-11T01:58:19.059Z,70.01
2018-12-11T01:59:21.487Z,69.71
2018-12-11T02:00:23.915Z,69.96
2018-12-11T02:01:26.366Z,69.71
2018-12-11T02:02:28.816Z,70.02
2018-12-11T02:03:32.119Z,69.98
2018-12-11T02:04:34.863Z,69.43
2018-12-11T02:05:37.296Z,69.51
2018-12-11T02:06:39.732Z,69.24
2018-12-11T02:07:42.200Z,68.66
2018-12-11T02:08:44.764Z,68.74
2018-12-11T02:09:47.202Z,69.23
2018-12-11T02:10:49.647Z,69.18
2018-12-11T02:11:52.091Z,68.96
2018-12-11T02:12:54.556Z,69.45
2018-12-11T02:13:57.045Z,69.27
2018-12-11T02:14:59.483Z,68.53
2018-12-11T02:16:01.920Z,69.67
2018-12-11T02:17:04.354Z,69.36
2018-12-11T02:18:06.923Z,69.35
2018-12-11T02:19:09.377Z,69.32
2018-12-11T02:20:11.811Z,69.15
2018-12-11T02:21:14.261Z,69.95
2018-12-11T02:22:16.694Z,69.38
2018-12-11T02:23:19.135Z,69.55
2018-12-11T02:24:21.584Z,69.22
2018-12-11T02:25:24.034Z,69.24
2018-12-11T02:26:26.492Z,69.51
2018-12-11T02:27:28.937Z,69.08
2018-12-11T02:28:31.383Z,69.03
2018-12-11T02:29:33.846Z,69.86
2018-12-11T02:30:36.509Z,69.16
2018-12-11T02:31:38.949Z,69.86
2018-12-11T02:32:41.416Z,69.84
2018-12-11T02:33:43.871Z,69.98
2018-12-11T02:34:46.330Z,70.04
2018-12-11T02:35:48.770Z,69.67
2018-12-11T02:36:51.312Z,69.67
2018-12-11T02:37:53.786Z,69.18
2018-12-11T02:38:56.238Z,69.00
2018-12-11T02:39:58.702Z,69.26
2018-12-11T02:41:01.132Z,69.23
2018-12-11T02:42:03.696Z,69.12
2018-12-11T02:43:06.141Z,69.54
2018-12-11T02:44:08.600Z,69.47
2018-12-11T02:45:11.061Z,69.12
2018-12-11T02:46:13.493Z,68.51
2018-12-11T02:47:15.943Z,68.91
2018-12-11T02:48:19.344Z,69.21
2018-12-11T02:49:21.836Z,68.98
2018-12-11T02:50:24.289Z,68.41
2018-12-11T02:51:26.724Z,68.71
2018-12-11T02:52:29.168Z,68.63
2018-12-11T02:53:31.612Z,68.59
2018-12-11T02:54:34.060Z,68.87
2018-12-11T02:55:36.513Z,69.32
2018-12-11T02:56:38.951Z,69.62
2018-12-11T02:57:41.393Z,69.13
2018-12-11T02:58:43.836Z,69.27
2018-12-11T02:59:46.289Z,69.89
2018-12-11T03:00:48.727Z,69.08
2018-12-11T03:01:51.195Z,69.54
2018-12-11T03:02:53.653Z,69.25
2018-12-11T03:03:56.092Z,68.79
2018-12-11T03:04:58.554Z,68.91
2018-12-11T03:06:01.016Z,68.98
2018-12-11T03:07:03.438Z,68.90
2018-12-11T03:08:05.882Z,69.40
2018-12-11T03:09:08.326Z,69.20
2018-12-11T03:10:10.876Z,69.29
2018-12-11T03:11:13.333Z,69.35
2018-12-11T03:12:15.777Z,69.79
2018-12-11T03:13:18.211Z,69.85
2018-12-11T03:14:20.666Z,69.33
2018-12-11T03:15:23.116Z,69.51
2018-12-11T03:16:25.563Z,69.81
2018-12-11T03:17:28.029Z,69.97
2018-12-11T03:18:30.487Z,69.55
2018-12-11T03:19:33.092Z,69.51
2018-12-11T03:20:35.539Z,69.53
2018-12-11T03:21:38.012Z,69.07
2018-12-11T03:22:40.447Z,69.28
2018-12-11T03:23:42.875Z,69.64
2018-12-11T03:24:45.339Z,69.64
2018-12-11T03:25:47.787Z,69.62
2018-12-11T03:26:50.254Z,69.36
2018-12-11T03:27:52.678Z,69.49
2018-12-11T03:28:55.191Z,69.29
2018-12-11T03:29:57.645Z,69.51
2018-12-11T03:31:00.103Z,69.90
2018-12-11T03:32:02.532Z,69.53
2018-12-11T03:33:04.978Z,70.02
2018-12-11T03:34:07.419Z,69.91
2018-12-11T03:35:09.858Z,69.30
2018-12-11T03:36:12.421Z,69.70
2018-12-11T03:37:14.875Z,69.77
2018-12-11T03:38:17.316Z,69.53
2018-12-11T03:39:19.753Z,69.99
2018-12-11T03:40:22.183Z,69.80
2018-12-11T03:41:24.639Z,69.85
2018-12-11T03:42:27.122Z,70.03
2018-12-11T03:43:29.573Z,69.93
2018-12-11T03:44:32.008Z,69.62
2018-12-11T03:45:34.462Z,69.70
2018-12-11T03:46:36.959Z,69.50
2018-12-11T03:47:39.411Z,69.30
2018-12-11T03:48:41.851Z,69.21
2018-12-11T03:49:44.289Z,69.26
2018-12-11T03:50:46.734Z,68.37
2018-12-11T03:51:49.198Z,68.71
2018-12-11T03:52:51.644Z,68.41
2018-12-11T03:53:54.091Z,68.63
2018-12-11T03:54:56.531Z,69.08
2018-12-11T03:55:58.976Z,68.54
2018-12-11T03:57:01.452Z,69.08
2018-12-11T03:58:04.011Z,69.06
2018-12-11T03:59:06.452Z,69.07
2018-12-11T04:00:09.052Z,68.58
2018-12-11T04:01:11.485Z,68.88
2018-12-11T04:02:13.932Z,68.81
2018-12-11T04:03:16.383Z,68.93
2018-12-11T04:04:18.843Z,68.47
2018-12-11T04:05:21.305Z,69.07
2018-12-11T04:06:23.751Z,68.36
2018-12-11T04:07:26.191Z,68.45
2018-12-11T04:08:28.646Z,68.57
2018-12-11T04:09:31.088Z,68.65
2018-12-11T04:10:33.536Z,68.56
2018-12-11T04:11:35.998Z,68.52
2018-12-11T04:12:38.456Z,68.07
2018-12-11T04:13:40.921Z,67.73
2018-12-11T04:14:43.365Z,67.87
2018-12-11T04:15:45.800Z,67.76
2018-12-11T04:16:48.232Z,67.94
2018-12-11T04:17:50.688Z,68.16
2018-12-11T04:18:53.134Z,68.06
2018-12-11T04:19:55.590Z,68.19
2018-12-11T04:20:58.042Z,68.81
2018-12-11T04:22:00.547Z,68.23
2018-12-11T04:23:03.004Z,68.32
2018-12-11T04:24:05.456Z,68.34
2018-12-11T04:25:08.098Z,67.99
2018-12-11T04:26:10.533Z,68.07
2018-12-11T04:27:12.974Z,67.83
2018-12-11T04:28:15.436Z,67.60
2018-12-11T04:29:18.032Z,68.01
2018-12-11T04:30:20.463Z,67.93
2018-12-11T04:31:22.920Z,68.12
2018-12-11T04:32:25.356Z,68.35
2018-12-11T04:33:27.807Z,67.48
2018-12-11T04:34:30.255Z,68.18
2018-12-11T04:35:32.684Z,68.20
2018-12-11T04:36:35.115Z,68.10
2018-12-11T04:37:37.540Z,68.23
2018-12-11T04:38:40.065Z,68.25
2018-12-11T04:39:42.522Z,68.20
2018-12-11T04:40:44.965Z,68.26
2018-12-11T04:41:47.392Z,68.44
2018-12-11T04:42:49.827Z,68.25
2018-12-11T04:43:52.301Z,67.88
2018-12-11T04:44:54.845Z,68.30
2018-12-11T04:45:57.283Z,68.50
2018-12-11T04:46:59.887Z,68.23
2018-12-11T04:48:02.319Z,67.90
2018-12-11T04:49:04.777Z,67.69
2018-12-11T04:50:07.311Z,67.66
2018-12-11T04:51:09.749Z,67.77
2018-12-11T04:52:12.186Z,67.18
2018-12-11T04:53:14.687Z,67.68
2018-12-11T04:54:17.145Z,67.17
2018-12-11T04:55:19.663Z,67.65
2018-12-11T04:56:22.096Z,68.02
2018-12-11T04:57:24.527Z,67.97
2018-12-11T04:58:26.966Z,67.78
2018-12-11T04:59:29.402Z,67.48
2018-12-11T05:00:31.839Z,67.65
2018-12-11T05:01:34.266Z,68.03
2018-12-11T05:02:36.703Z,67.29
2018-12-11T05:03:39.196Z,67.64
2018-12-11T05:04:41.662Z,68.10
2018-12-11T05:05:44.127Z,68.54
2018-12-11T05:06:46.590Z,68.79
2018-12-11T05:07:49.026Z,68.13
2018-12-11T05:08:51.455Z,68.74
2018-12-11T05:09:53.952Z,68.17
2018-12-11T05:10:56.481Z,68.78
2018-12-11T05:11:58.921Z,68.92
2018-12-11T05:13:01.348Z,68.91
2018-12-11T05:14:03.868Z,69.01
2018-12-11T05:15:06.702Z,68.75
2018-12-11T05:16:09.210Z,68.17
2018-12-11T05:17:11.650Z,68.54
2018-12-11T05:18:14.083Z,68.16
2018-12-11T05:19:16.517Z,68.51
2018-12-11T05:20:18.962Z,68.94
2018-12-11T05:21:21.428Z,68.99
2018-12-11T05:22:23.854Z,68.81
2018-12-11T05:23:26.290Z,69.20
2018-12-11T05:24:28.733Z,69.16
2018-12-11T05:25:31.277Z,69.01
2018-12-11T05:26:33.710Z,68.85
2018-12-11T05:27:36.140Z,69.31
2018-12-11T05:28:38.639Z,68.81
2018-12-11T05:29:41.067Z,69.17
2018-12-11T05:30:43.559Z,68.60
2018-12-11T05:31:46.015Z,68.64
2018-12-11T05:32:48.452Z,68.41
2018-12-11T05:33:50.890Z,68.58
2018-12-11T05:34:53.322Z,68.42
2018-12-11T05:35:55.775Z,69.07
2018-12-11T05:36:58.543Z,68.76
2018-12-11T05:38:00.975Z,69.11
2018-12-11T05:39:05.893Z,68.94
2018-12-11T05:40:08.411Z,69.46
2018-12-11T05:41:10.862Z,69.24
2018-12-11T05:42:13.321Z,69.47
2018-12-11T05:43:15.755Z,69.44
2018-12-11T05:44:18.193Z,69.04
2018-12-11T05:45:20.619Z,68.67
2018-12-11T05:46:23.080Z,69.35
2018-12-11T05:47:25.537Z,69.00
2018-12-11T05:48:28.004Z,68.87
2018-12-11T05:49:30.468Z,68.59
2018-12-11T05:50:32.896Z,68.79
2018-12-11T05:51:35.336Z,68.94
2018-12-11T05:52:37.791Z,68.78
2018-12-11T05:53:40.220Z,68.74
2018-12-11T05:54:42.642Z,68.75
2018-12-11T05:55:45.075Z,69.25
2018-12-11T05:56:47.523Z,68.71
2018-12-11T05:57:49.956Z,68.58
2018-12-11T05:58:52.395Z,68.73
2018-12-11T05:59:54.839Z,68.51
2018-12-11T06:00:57.271Z,68.68
2018-12-11T06:01:59.762Z,68.94
2018-12-11T06:03:02.241Z,68.67
2018-12-11T06:04:04.675Z,68.71
2018-12-11T06:05:08.187Z,68.70
2018-12-11T06:06:10.637Z,68.70
2018-12-11T06:07:13.165Z,68.94
2018-12-11T06:08:15.631Z,69.05
2018-12-11T06:09:18.072Z,68.48
2018-12-11T06:10:20.511Z,68.53
2018-12-11T06:11:22.986Z,68.85
2018-12-11T06:12:25.443Z,68.43
2018-12-11T06:13:27.924Z,68.84
2018-12-11T06:14:30.447Z,68.66
2018-12-11T06:15:32.898Z,68.67
2018-12-11T06:16:35.346Z,68.81
2018-12-11T06:17:37.804Z,68.16
2018-12-11T06:18:40.255Z,68.38
2018-12-11T06:19:42.752Z,68.58
2018-12-11T06:20:45.194Z,68.65
2018-12-11T06:21:47.631Z,68.11
2018-12-11T06:22:50.080Z,68.12
2018-12-11T06:23:52.532Z,68.23
2018-12-11T06:24:54.971Z,69.09
2018-12-11T06:25:57.428Z,68.57
2018-12-11T06:26:59.859Z,68.96
2018-12-11T06:28:02.307Z,68.99
2018-12-11T06:29:04.781Z,68.78
2018-12-11T06:30:08.694Z,68.61
2018-12-11T06:31:11.130Z,69.08
2018-12-11T06:32:13.563Z,69.08
2018-12-11T06:33:16.001Z,68.77
2018-12-11T06:34:18.468Z,69.24
2018-12-11T06:35:20.902Z,68.99
2018-12-11T06:36:23.336Z,69.02
2018-12-11T06:37:25.796Z,69.02
2018-12-11T06:38:28.314Z,68.71
2018-12-11T06:39:30.781Z,68.78
2018-12-11T06:40:33.224Z,69.20
2018-12-11T06:41:35.646Z,69.06
2018-12-11T06:42:38.098Z,68.79
2018-12-11T06:43:40.552Z,70.06
2018-12-11T06:44:42.989Z,69.64
2018-12-11T06:45:45.473Z,69.27
2018-12-11T06:46:47.906Z,69.51
2018-12-11T06:47:50.379Z,69.57
2018-12-11T06:48:52.974Z,68.90
2018-12-11T06:49:55.429Z,69.32
2018-12-11T06:50:57.882Z,68.91
2018-12-11T06:52:00.454Z,69.07
2018-12-11T06:53:02.951Z,69.25
2018-12-11T06:54:05.476Z,69.04
2018-12-11T06:55:07.921Z,68.91
2018-12-11T06:56:10.380Z,69.43
2018-12-11T06:57:13.581Z,68.89
2018-12-11T06:58:16.015Z,69.04
2018-12-11T06:59:18.508Z,68.76
2018-12-11T07:00:20.991Z,68.87
2018-12-11T07:01:23.523Z,68.93
2018-12-11T07:02:25.971Z,69.01
2018-12-11T07:03:28.418Z,68.69
2018-12-11T07:04:30.902Z,68.91
2018-12-11T07:05:34.059Z,69.68
2018-12-11T07:06:36.671Z,70.61
2018-12-11T07:07:39.171Z,71.14
2018-12-11T07:08:41.675Z,71.59
2018-12-11T07:09:44.156Z,71.62
2018-12-11T07:10:46.602Z,72.63
2018-12-11T07:11:49.072Z,73.01
2018-12-11T07:12:52.599Z,73.40
2018-12-11T07:13:55.231Z,73.37
2018-12-11T07:14:57.687Z,73.66
2018-12-11T07:16:00.152Z,73.53
2018-12-11T07:17:02.626Z,73.90
2018-12-11T07:18:05.088Z,73.77
2018-12-11T07:19:07.525Z,73.52
2018-12-11T07:20:10.021Z,73.77
2018-12-11T07:21:12.570Z,73.14
2018-12-11T07:22:15.903Z,72.80
2018-12-11T07:23:18.416Z,72.90
2018-12-11T07:24:20.909Z,72.84
2018-12-11T07:25:23.425Z,73.23
2018-12-11T07:26:25.888Z,72.72
2018-12-11T07:27:28.393Z,72.66
2018-12-11T07:28:30.862Z,72.63
2018-12-11T07:29:33.340Z,71.77
2018-12-11T07:30:35.798Z,71.90
2018-12-11T07:31:38.237Z,71.47
2018-12-11T07:32:40.676Z,72.05
2018-12-11T07:33:43.133Z,71.35
2018-12-11T07:34:45.598Z,71.99
2018-12-11T07:35:48.045Z,71.62
2018-12-11T07:36:50.502Z,71.86
2018-12-11T07:37:52.951Z,71.59
2018-12-11T07:38:55.391Z,71.30
2018-12-11T07:39:57.823Z,70.96
2018-12-11T07:41:00.282Z,70.69
2018-12-11T07:42:02.751Z,70.86
2018-12-11T07:43:05.212Z,70.30
2018-12-11T07:44:07.680Z,70.35
2018-12-11T07:45:10.190Z,70.27
2018-12-11T07:46:12.672Z,71.25
2018-12-11T07:47:15.135Z,71.76
2018-12-11T07:48:17.571Z,73.41
2018-12-11T07:49:20.738Z,73.85
2018-12-11T07:50:23.175Z,74.84
2018-12-11T07:51:25.641Z,74.71
2018-12-11T07:52:28.097Z,74.63
2018-12-11T07:53:30.535Z,74.60
2018-12-11T07:54:33.008Z,74.68
2018-12-11T07:55:35.460Z,74.37
2018-12-11T07:56:37.963Z,75.01
2018-12-11T07:57:40.434Z,74.24
2018-12-11T07:58:42.877Z,74.24
2018-12-11T07:59:45.327Z,74.12
2018-12-11T08:00:47.794Z,73.57
2018-12-11T08:01:50.318Z,73.89
2018-12-11T08:02:52.752Z,73.16
2018-12-11T08:03:56.126Z,73.61
2018-12-11T08:04:58.771Z,73.04
2018-12-11T08:06:01.214Z,73.20
2018-12-11T08:07:03.687Z,73.27
2018-12-11T08:08:06.160Z,73.16
2018-12-11T08:09:08.613Z,73.12
2018-12-11T08:10:11.071Z,73.26
2018-12-11T08:11:13.588Z,73.45
2018-12-11T08:12:16.093Z,72.95
2018-12-11T08:13:18.591Z,72.69
2018-12-11T08:14:21.058Z,73.68
2018-12-11T08:15:23.593Z,73.43
2018-12-11T08:16:26.130Z,73.50
2018-12-11T08:17:28.587Z,73.13
2018-12-11T08:18:31.038Z,72.98
2018-12-11T08:19:33.495Z,73.06
2018-12-11T08:20:35.935Z,72.93
2018-12-11T08:21:38.370Z,72.44
2018-12-11T08:22:40.832Z,72.93
2018-12-11T08:23:43.287Z,72.62
2018-12-11T08:24:45.744Z,73.07
2018-12-11T08:25:48.190Z,72.60
2018-12-11T08:26:50.652Z,72.56
2018-12-11T08:27:53.115Z,73.24
2018-12-11T08:28:55.592Z,72.88
2018-12-11T08:29:58.049Z,72.26
2018-12-11T08:31:00.501Z,72.70
2018-12-11T08:32:05.667Z,71.91
2018-12-11T08:33:08.465Z,72.63
2018-12-11T08:34:10.944Z,72.20
2018-12-11T08:35:13.439Z,71.85
2018-12-11T08:36:15.869Z,72.40
2018-12-11T08:37:18.327Z,72.22
2018-12-11T08:38:20.836Z,71.16
2018-12-11T08:39:23.343Z,71.23
2018-12-11T08:40:25.775Z,72.03
2018-12-11T08:41:28.234Z,71.54
2018-12-11T08:42:30.683Z,72.35
2018-12-11T08:43:33.161Z,72.56
2018-12-11T08:44:35.636Z,71.88
2018-12-11T08:45:38.082Z,72.43
2018-12-11T08:46:40.527Z,72.32
2018-12-11T08:47:42.960Z,71.92
2018-12-11T08:48:45.455Z,71.16
2018-12-11T08:49:47.907Z,71.07
2018-12-11T08:50:50.392Z,71.60
2018-12-11T08:51:52.895Z,71.91
2018-12-11T08:52:55.359Z,72.08
2018-12-11T08:53:57.813Z,71.41
2018-12-11T08:55:00.265Z,71.25
2018-12-11T08:56:02.711Z,71.46
2018-12-11T08:57:05.258Z,71.40
2018-12-11T08:58:07.723Z,71.18
2018-12-11T08:59:10.351Z,71.15
2018-12-11T09:00:12.824Z,71.34
2018-12-11T09:01:15.290Z,70.65
2018-12-11T09:02:17.741Z,70.71
2018-12-11T09:03:20.220Z,71.33
2018-12-11T09:04:22.682Z,70.63
2018-12-11T09:05:25.133Z,70.50
2018-12-11T09:06:27.571Z,71.20
2018-12-11T09:07:30.060Z,70.35
2018-12-11T09:08:32.536Z,70.39
2018-12-11T09:09:34.986Z,70.68
2018-12-11T09:10:37.450Z,70.58
2018-12-11T09:11:39.896Z,70.93
2018-12-11T09:12:42.367Z,70.70
2018-12-11T09:13:44.871Z,70.76
2018-12-11T09:14:47.298Z,70.02
2018-12-11T09:15:49.747Z,70.02
2018-12-11T09:16:52.202Z,69.97
2018-12-11T09:17:54.644Z,70.68
2018-12-11T09:18:57.111Z,70.09
2018-12-11T09:19:59.617Z,70.20
2018-12-11T09:21:02.128Z,70.14
2018-12-11T09:22:04.573Z,69.90
2018-12-11T09:23:07.072Z,69.50
2018-12-11T09:24:09.526Z,69.60
2018-12-11T09:25:12.032Z,69.24
2018-12-11T09:26:14.477Z,69.74
2018-12-11T09:27:16.944Z,69.16
2018-12-11T09:28:19.438Z,69.34
2018-12-11T09:29:21.882Z,69.10
2018-12-11T09:30:24.373Z,69.43
2018-12-11T09:31:26.811Z,69.71
2018-12-11T09:32:29.249Z,69.39
2018-12-11T09:33:31.718Z,69.66
2018-12-11T09:34:34.168Z,69.96
2018-12-11T09:35:36.603Z,69.61
2018-12-11T09:36:39.072Z,69.58
2018-12-11T09:37:41.602Z,69.65
2018-12-11T09:38:44.047Z,69.71
2018-12-11T09:39:46.508Z,69.08
2018-12-11T09:40:48.953Z,69.25
2018-12-11T09:41:51.384Z,69.10
2018-12-11T09:42:53.933Z,69.57
2018-12-11T09:43:56.401Z,69.56
2018-12-11T09:44:58.896Z,69.62
2018-12-11T09:46:01.360Z,69.38
2018-12-11T09:47:03.867Z,69.85
2018-12-11T09:48:06.318Z,69.69
2018-12-11T09:49:08.771Z,69.05
2018-12-11T09:50:11.301Z,69.60
2018-12-11T09:51:17.769Z,69.32
2018-12-11T09:52:18.215Z,69.22
2018-12-11T09:53:20.655Z,69.31
2018-12-11T09:54:23.128Z,69.06
2018-12-11T09:55:26.181Z,69.04
2018-12-11T09:56:28.692Z,69.41
2018-12-11T09:57:31.412Z,69.53
2018-12-11T09:58:33.858Z,69.08
2018-12-11T09:59:36.312Z,68.87
2018-12-11T10:00:38.834Z,69.12
2018-12-11T10:01:41.879Z,69.45
2018-12-11T10:02:44.307Z,68.99
2018-12-11T10:03:46.762Z,68.78
2018-12-11T10:04:49.214Z,69.32
2018-12-11T10:05:51.655Z,68.60
2018-12-11T10:06:54.110Z,68.95
2018-12-11T10:07:56.538Z,68.83
2018-12-11T10:09:04.370Z,68.66
2018-12-11T10:10:06.860Z,68.63
2018-12-11T10:11:09.300Z,68.08
2018-12-11T10:12:11.758Z,68.24
2018-12-11T10:13:14.201Z,67.88
2018-12-11T10:14:16.633Z,67.99
2018-12-11T10:15:19.101Z,67.59
2018-12-11T10:16:21.561Z,67.70
2018-12-11T10:17:23.991Z,67.83
2018-12-11T10:18:26.431Z,68.35
2018-12-11T10:19:28.875Z,68.08
2018-12-11T10:20:31.331Z,67.73
2018-12-11T10:21:33.902Z,67.31
2018-12-11T10:22:36.371Z,67.67
2018-12-11T10:23:39.329Z,68.10
2018-12-11T10:24:41.757Z,67.99
2018-12-11T10:25:44.203Z,67.54
2018-12-11T10:26:46.738Z,67.51
2018-12-11T10:27:49.170Z,67.43
2018-12-11T10:28:51.651Z,67.68
2018-12-11T10:29:54.099Z,67.58
2018-12-11T10:30:56.563Z,66.96
2018-12-11T10:31:59.019Z,67.42
2018-12-11T10:33:01.467Z,67.21
2018-12-11T10:34:04.072Z,67.81
2018-12-11T10:35:06.923Z,67.86
2018-12-11T10:36:09.389Z,67.43
2018-12-11T10:37:11.827Z,67.15
2018-12-11T10:38:14.257Z,66.87
2018-12-11T10:39:16.691Z,67.07
2018-12-11T10:40:19.118Z,66.64
2018-12-11T10:41:21.571Z,66.66
2018-12-11T10:42:24.045Z,66.56
2018-12-11T10:43:26.484Z,66.52
2018-12-11T10:44:29.089Z,66.84
2018-12-11T10:45:31.525Z,66.41
2018-12-11T10:46:34.019Z,66.73
2018-12-11T10:47:36.619Z,65.79
2018-12-11T10:48:39.074Z,66.08
2018-12-11T10:49:41.500Z,66.45
2018-12-11T10:51:52.840Z,66.06
2018-12-11T10:52:55.295Z,66.28
2018-12-11T10:53:57.734Z,66.75
2018-12-11T10:55:00.182Z,65.51
2018-12-11T10:56:02.630Z,66.29
2018-12-11T10:57:05.266Z,65.94
2018-12-11T10:58:07.713Z,65.91
2018-12-11T10:59:10.415Z,65.57
2018-12-11T11:00:14.967Z,66.27
2018-12-11T11:01:17.973Z,65.93
2018-12-11T11:02:23.446Z,66.06
2018-12-11T11:03:25.878Z,65.90
2018-12-11T11:04:28.445Z,66.04
2018-12-11T11:05:30.870Z,66.04
2018-12-11T11:06:33.343Z,66.25
2018-12-11T11:07:36.089Z,66.20
2018-12-11T11:08:38.525Z,65.90
2018-12-11T11:09:40.969Z,66.42
2018-12-11T11:10:43.512Z,66.44
2018-12-11T11:11:46.084Z,65.92
2018-12-11T11:12:48.563Z,66.44
2018-12-11T11:13:51.085Z,66.16
2018-12-11T11:14:53.533Z,66.58
2018-12-11T11:15:56.056Z,66.42
2018-12-11T11:16:58.518Z,66.18
2018-12-11T11:18:01.030Z,66.62
2018-12-11T11:19:07.528Z,66.08
2018-12-11T11:20:10.055Z,66.83
2018-12-11T11:21:12.554Z,67.33
2018-12-11T11:22:15.288Z,67.06
2018-12-11T11:23:17.948Z,67.12
2018-12-11T11:24:20.562Z,66.59
2018-12-11T11:25:23.075Z,66.98
2018-12-11T11:26:27.230Z,66.49
2018-12-11T11:27:33.619Z,66.66
2018-12-11T11:28:38.510Z,66.16
2018-12-11T11:29:41.030Z,66.55
2018-12-11T11:30:43.520Z,66.28
2018-12-11T11:31:45.980Z,66.61
2018-12-11T11:32:48.523Z,67.05
2018-12-11T11:33:56.612Z,67.21
2018-12-11T11:34:55.621Z,68.12
2018-12-11T11:35:58.071Z,68.21
2018-12-11T11:37:00.560Z,69.36
2018-12-11T11:38:03.022Z,69.63
2018-12-11T11:39:07.166Z,70.38
2018-12-11T11:40:09.671Z,71.17
2018-12-11T11:41:12.174Z,71.21
2018-12-11T11:42:16.631Z,71.70
2018-12-11T11:43:19.152Z,71.80
2018-12-11T11:44:21.702Z,71.94
2018-12-11T11:45:24.334Z,71.58
2018-12-11T11:46:26.822Z,72.00
2018-12-11T11:47:29.305Z,71.57
2018-12-11T11:48:32.767Z,71.72
2018-12-11T11:49:35.251Z,71.65
2018-12-11T11:50:37.932Z,71.35
2018-12-11T11:51:40.411Z,71.53
2018-12-11T11:52:42.852Z,71.25
2018-12-11T11:53:45.282Z,70.94
2018-12-11T11:54:47.788Z,70.91
2018-12-11T11:55:50.258Z,71.39
2018-12-11T11:56:52.996Z,71.07
2018-12-11T11:57:55.685Z,70.94
2018-12-11T11:58:58.165Z,70.13
2018-12-11T12:00:00.628Z,70.43
2018-12-11T12:01:03.139Z,69.85
2018-12-11T12:02:05.650Z,70.47
2018-12-11T12:03:08.113Z,69.72
2018-12-11T12:04:10.556Z,70.32
2018-12-11T12:05:13.176Z,69.84
2018-12-11T12:06:15.598Z,69.70
2018-12-11T12:07:18.028Z,69.39
2018-12-11T12:08:20.468Z,68.76
2018-12-11T12:09:22.936Z,67.99
2018-12-11T12:10:25.392Z,68.82
2018-12-11T12:11:27.839Z,68.48
2018-12-11T12:12:30.285Z,67.98
2018-12-11T12:13:32.723Z,67.59
2018-12-11T12:14:35.151Z,66.96
2018-12-11T12:15:37.609Z,66.89
2018-12-11T12:16:40.054Z,66.80
2018-12-11T12:17:42.482Z,67.09
2018-12-11T12:18:44.923Z,67.14
2018-12-11T12:19:47.371Z,66.60
2018-12-11T12:20:49.859Z,66.70
2018-12-11T12:21:52.317Z,66.56
2018-12-11T12:22:54.776Z,66.41
2018-12-11T12:23:57.210Z,66.69
2018-12-11T12:24:59.680Z,66.54
2018-12-11T12:26:02.154Z,66.50
2018-12-11T12:27:04.592Z,66.65
2018-12-11T12:28:07.058Z,65.98
2018-12-11T12:29:09.497Z,65.87
2018-12-11T12:30:11.968Z,65.67
2018-12-11T12:31:14.721Z,65.95
2018-12-11T12:32:17.194Z,66.60
2018-12-11T12:33:19.642Z,66.67
2018-12-11T12:34:22.083Z,66.52
2018-12-11T12:35:24.527Z,66.18
2018-12-11T12:36:27.048Z,66.73
2018-12-11T12:37:29.507Z,66.33
2018-12-11T12:38:32.147Z,66.73
2018-12-11T12:39:34.594Z,67.37
2018-12-11T12:40:37.035Z,67.72
2018-12-11T12:41:39.518Z,68.45
2018-12-11T12:42:42.006Z,68.28
2018-12-11T12:43:44.445Z,68.17
2018-12-11T12:44:46.900Z,68.55
2018-12-11T12:45:49.335Z,68.37
2018-12-11T12:46:51.843Z,68.59
2018-12-11T12:47:54.302Z,68.76
2018-12-11T12:48:56.751Z,68.82
2018-12-11T12:49:59.236Z,68.42
2018-12-11T12:51:01.684Z,68.97
2018-12-11T12:52:04.231Z,68.69
2018-12-11T12:53:06.694Z,69.32
2018-12-11T12:54:09.171Z,69.01
2018-12-11T12:55:11.620Z,69.08
2018-12-11T12:56:14.050Z,69.49
2018-12-11T12:57:16.507Z,69.59
2018-12-11T12:58:18.941Z,69.07
2018-12-11T12:59:21.374Z,69.48
2018-12-11T13:00:23.803Z,69.11
2018-12-11T13:01:26.239Z,69.59
2018-12-11T13:02:28.707Z,69.73
2018-12-11T13:03:31.344Z,68.89
2018-12-11T13:04:33.781Z,68.88
2018-12-11T13:05:36.324Z,68.76
2018-12-11T13:06:38.952Z,69.07
2018-12-11T13:07:41.399Z,69.17
2018-12-11T13:08:43.855Z,69.14
2018-12-11T13:09:46.288Z,68.36
2018-12-11T13:10:48.727Z,69.04
2018-12-11T13:11:51.187Z,68.66
2018-12-11T13:12:53.739Z,68.52
2018-12-11T13:13:56.180Z,68.92
2018-12-11T13:14:58.722Z,68.91
2018-12-11T13:16:01.210Z,68.62
2018-12-11T13:17:03.659Z,68.32
2018-12-11T13:18:06.151Z,69.06
2018-12-11T13:19:08.611Z,69.22
2018-12-11T13:20:11.113Z,68.71
2018-12-11T13:21:13.535Z,68.49
2018-12-11T13:22:15.966Z,68.63
2018-12-11T13:23:18.427Z,68.45
2018-12-11T13:24:20.899Z,67.95
2018-12-11T13:25:23.363Z,68.76
2018-12-11T13:26:25.833Z,68.09